createdAt,value
2022-12-31T00:01:36.621Z,57.72
2022-12-31T00:04:08.638Z,57.47
2022-12-31T00:06:40.560Z,54.33
2022-12-31T00:09:12.622Z,50.33
2022-12-31T00:11:44.549Z,56.40
2022-12-31T00:14:16.507Z,48.53
2022-12-31T00:16:48.532Z,50.38
2022-12-31T00:19:20.529Z,49.35
2022-12-31T00:21:52.532Z,48.38
2022-12-31T00:24:24.485Z,55.05
2022-12-31T00:26:56.383Z,56.17
2022-12-31T00:29:28.232Z,53.42
2022-12-31T00:32:00.133Z,64.53
2022-12-31T00:34:31.972Z,59.05
2022-12-31T00:37:03.869Z,47.55
2022-12-31T00:39:35.733Z,51.00
2022-12-31T00:42:07.705Z,58.97
2022-12-31T00:44:39.649Z,51.90
2022-12-31T00:47:11.641Z,51.05
2022-12-31T00:49:43.738Z,51.45
2022-12-31T00:52:17.158Z,49.22
2022-12-31T00:54:49.115Z,52.10
2022-12-31T00:57:21.039Z,48.55
2022-12-31T00:59:53.101Z,50.70
2022-12-31T01:02:25.129Z,48.08
2022-12-31T01:04:57.128Z,46.80
2022-12-31T01:07:29.101Z,47.13
2022-12-31T01:10:01.070Z,42.33
2022-12-31T01:12:33.015Z,46.65
2022-12-31T01:15:05.516Z,41.38
2022-12-31T01:17:37.381Z,42.08
2022-12-31T01:20:09.465Z,42.45
2022-12-31T01:22:41.312Z,41.72
2022-12-31T01:25:13.196Z,45.88
2022-12-31T01:27:45.322Z,44.55
2022-12-31T01:30:17.326Z,41.92
2022-12-31T01:32:49.277Z,42.97
2022-12-31T01:35:21.233Z,41.40
2022-12-31T01:37:53.132Z,40.90
2022-12-31T01:40:25.106Z,41.10
2022-12-31T01:42:59.316Z,40.92
2022-12-31T01:45:31.336Z,41.13
2022-12-31T01:48:03.277Z,41.97
2022-12-31T01:50:38.711Z,41.22
2022-12-31T01:53:12.276Z,38.83
2022-12-31T01:55:59.164Z,41.35
2022-12-31T01:58:37.354Z,39.60
2022-12-31T02:01:13.077Z,41.30
2022-12-31T02:03:45.262Z,43.17
2022-12-31T02:06:32.752Z,42.38
2022-12-31T02:09:04.931Z,38.53
2022-12-31T02:11:38.327Z,39.25
2022-12-31T02:14:19.328Z,39.00
2022-12-31T02:16:54.193Z,35.78
2022-12-31T02:19:47.219Z,36.70
2022-12-31T02:22:43.989Z,38.97
2022-12-31T02:25:47.104Z,37.22
2022-12-31T02:28:31.137Z,35.50
2022-12-31T02:31:35.052Z,33.28
2022-12-31T02:34:14.612Z,33.92
2022-12-31T02:36:49.743Z,33.65
2022-12-31T02:39:22.252Z,32.38
2022-12-31T02:41:54.406Z,30.60
2022-12-31T02:44:29.398Z,29.63
2022-12-31T02:47:10.159Z,29.95
2022-12-31T02:50:07.168Z,28.80
2022-12-31T02:52:59.431Z,26.92
2022-12-31T02:55:49.716Z,25.98
2022-12-31T02:58:50.589Z,27.90
2022-12-31T03:01:48.543Z,26.20
2022-12-31T03:04:36.112Z,27.50
2022-12-31T03:07:12.037Z,26.13
2022-12-31T03:09:43.947Z,23.48
2022-12-31T03:12:35.312Z,23.73
2022-12-31T03:15:20.443Z,25.23
2022-12-31T03:17:57.873Z,22.42
2022-12-31T03:20:51.831Z,22.42
2022-12-31T03:23:35.833Z,20.52
2022-12-31T03:26:11.561Z,19.70
2022-12-31T03:28:48.175Z,20.38
2022-12-31T03:31:20.199Z,19.35
2022-12-31T03:33:52.251Z,19.65
2022-12-31T03:36:24.086Z,18.52
2022-12-31T03:38:56.132Z,17.60
2022-12-31T03:41:28.095Z,16.83
2022-12-31T03:44:00.101Z,16.58
2022-12-31T03:46:31.954Z,17.40
2022-12-31T03:49:03.910Z,15.75
2022-12-31T03:51:35.773Z,16.13
2022-12-31T03:54:07.649Z,15.80
2022-12-31T03:56:39.558Z,16.27
2022-12-31T03:59:11.389Z,14.65
2022-12-31T04:01:43.427Z,15.00
2022-12-31T04:04:15.336Z,15.70
2022-12-31T04:06:47.249Z,15.27
2022-12-31T04:09:19.084Z,13.82
2022-12-31T04:11:51.067Z,14.07
2022-12-31T04:14:22.994Z,14.05
2022-12-31T04:16:55.078Z,15.68
2022-12-31T04:19:27.067Z,17.60
2022-12-31T04:21:59.392Z,16.73
2022-12-31T04:24:31.433Z,17.65
2022-12-31T04:27:07.503Z,17.85
2022-12-31T04:29:40.195Z,18.30
2022-12-31T04:32:12.399Z,20.05
2022-12-31T04:34:44.373Z,20.70
2022-12-31T04:37:16.812Z,18.30
2022-12-31T04:39:48.803Z,16.30
2022-12-31T04:42:20.840Z,14.25
2022-12-31T04:44:52.766Z,15.52
2022-12-31T04:47:24.740Z,13.38
2022-12-31T04:49:56.729Z,16.88
2022-12-31T04:52:35.775Z,16.70
2022-12-31T04:55:12.561Z,14.43
2022-12-31T04:57:44.521Z,17.13
2022-12-31T05:00:16.577Z,13.05
2022-12-31T05:02:48.765Z,13.88
2022-12-31T05:05:20.836Z,16.52
2022-12-31T05:07:52.762Z,13.98
2022-12-31T05:10:24.849Z,19.33
2022-12-31T05:12:56.780Z,21.55
2022-12-31T05:15:28.859Z,19.70
2022-12-31T05:18:00.851Z,21.77
2022-12-31T05:20:33.651Z,25.60
2022-12-31T05:23:05.640Z,22.30
2022-12-31T05:25:37.905Z,16.83
2022-12-31T05:28:10.067Z,20.38
2022-12-31T05:30:43.130Z,16.25
2022-12-31T05:33:15.106Z,14.98
2022-12-31T05:35:47.267Z,13.80
2022-12-31T05:38:19.225Z,12.00
2022-12-31T05:40:59.586Z,13.50
2022-12-31T05:43:32.576Z,12.75
2022-12-31T05:46:05.399Z,12.98
2022-12-31T05:48:37.400Z,11.80
2022-12-31T05:51:09.504Z,11.88
2022-12-31T05:53:41.448Z,12.95
2022-12-31T05:56:13.789Z,12.57
2022-12-31T05:58:45.744Z,13.75
2022-12-31T06:01:17.713Z,12.18
2022-12-31T06:03:49.830Z,14.50
2022-12-31T06:06:21.930Z,15.23
2022-12-31T06:08:53.937Z,17.45
2022-12-31T06:11:25.894Z,17.00
2022-12-31T06:13:58.769Z,15.52
2022-12-31T06:16:30.872Z,14.77
2022-12-31T06:19:03.053Z,13.52
2022-12-31T06:21:35.177Z,14.13
2022-12-31T06:24:07.560Z,15.30
2022-12-31T06:26:39.607Z,14.05
2022-12-31T06:29:11.686Z,14.65
2022-12-31T06:31:43.520Z,15.27
2022-12-31T06:34:15.493Z,16.02
2022-12-31T06:36:47.428Z,15.57
2022-12-31T06:39:19.373Z,15.88
2022-12-31T06:41:51.255Z,17.30
2022-12-31T06:44:23.149Z,15.85
2022-12-31T06:46:55.140Z,15.05
2022-12-31T06:49:27.129Z,14.70
2022-12-31T06:51:59.024Z,16.92
2022-12-31T06:54:31.074Z,15.05
2022-12-31T06:57:03.271Z,15.13
2022-12-31T06:59:36.363Z,15.48
2022-12-31T07:02:32.831Z,16.35
2022-12-31T07:05:39.203Z,14.15
2022-12-31T07:08:29.430Z,15.10
2022-12-31T07:11:27.004Z,14.73
2022-12-31T07:14:36.147Z,16.27
2022-12-31T07:17:19.916Z,15.35
2022-12-31T07:20:11.525Z,16.33
2022-12-31T07:22:44.983Z,16.95
2022-12-31T07:25:18.667Z,14.73
2022-12-31T07:27:57.841Z,16.42
2022-12-31T07:30:42.044Z,15.43
2022-12-31T07:33:53.701Z,14.93
2022-12-31T07:36:31.306Z,14.70
2022-12-31T07:39:11.357Z,14.70
2022-12-31T07:42:14.066Z,16.38
2022-12-31T07:45:15.531Z,15.50
2022-12-31T07:47:47.636Z,14.50
2022-12-31T07:50:20.323Z,15.30
2022-12-31T07:52:52.504Z,13.57
2022-12-31T07:55:24.451Z,16.38
2022-12-31T07:58:06.549Z,14.50
2022-12-31T08:00:38.553Z,14.60
2022-12-31T08:03:16.292Z,15.05
2022-12-31T08:06:08.279Z,14.25
2022-12-31T08:08:55.341Z,14.07
2022-12-31T08:11:43.982Z,13.80
2022-12-31T08:14:16.187Z,14.00
2022-12-31T08:16:48.783Z,13.80
2022-12-31T08:19:23.967Z,13.27
2022-12-31T08:22:16.073Z,14.05
2022-12-31T08:25:15.866Z,13.40
2022-12-31T08:27:59.690Z,12.77
2022-12-31T08:30:59.604Z,13.57
2022-12-31T08:34:00.757Z,13.60
2022-12-31T08:37:00.799Z,12.63
2022-12-31T08:40:10.837Z,13.25
2022-12-31T08:43:11.902Z,12.85
2022-12-31T08:45:49.456Z,13.40
2022-12-31T08:48:30.374Z,12.45
2022-12-31T08:51:02.614Z,12.65
2022-12-31T08:53:35.391Z,19.80
2022-12-31T08:56:30.715Z,12.45
2022-12-31T08:59:16.705Z,12.95
2022-12-31T09:01:54.704Z,13.15
2022-12-31T09:04:45.007Z,13.55
2022-12-31T09:07:23.885Z,12.38
2022-12-31T09:10:20.755Z,12.38
2022-12-31T09:12:58.805Z,11.75
2022-12-31T09:15:37.969Z,12.32
2022-12-31T09:18:12.480Z,14.10
2022-12-31T09:20:44.984Z,12.85
2022-12-31T09:23:17.248Z,12.40
2022-12-31T09:26:29.767Z,12.27
2022-12-31T09:29:10.438Z,13.55
2022-12-31T09:32:06.594Z,13.40
2022-12-31T09:34:41.090Z,13.30
2022-12-31T09:37:22.063Z,13.85
2022-12-31T09:39:59.215Z,13.05
2022-12-31T09:42:57.341Z,12.68
2022-12-31T09:45:53.582Z,11.50
2022-12-31T09:48:56.402Z,13.18
2022-12-31T09:51:42.419Z,12.15
2022-12-31T09:54:17.219Z,11.60
2022-12-31T09:57:10.423Z,10.35
2022-12-31T09:59:54.645Z,10.25
2022-12-31T10:03:03.745Z,10.48
2022-12-31T10:05:50.615Z,9.23
2022-12-31T10:08:53.479Z,9.52
2022-12-31T10:11:34.494Z,10.50
2022-12-31T10:14:31.272Z,9.02
2022-12-31T10:17:06.250Z,10.27
2022-12-31T10:19:56.898Z,10.90
2022-12-31T10:22:49.122Z,10.27
2022-12-31T10:25:39.265Z,10.48
2022-12-31T10:28:30.369Z,9.15
2022-12-31T10:31:39.067Z,9.20
2022-12-31T10:34:27.318Z,9.60
2022-12-31T10:37:20.226Z,9.48
2022-12-31T10:40:16.669Z,8.93
2022-12-31T10:43:09.933Z,8.60
2022-12-31T10:46:32.773Z,8.20
2022-12-31T10:49:13.375Z,8.70
2022-12-31T10:52:06.841Z,9.20
2022-12-31T10:54:57.502Z,8.18
2022-12-31T10:57:35.594Z,8.80
2022-12-31T11:00:19.967Z,8.48
2022-12-31T11:03:39.212Z,8.77
2022-12-31T11:06:44.906Z,9.93
2022-12-31T11:09:39.709Z,11.70
2022-12-31T11:12:48.411Z,9.75
2022-12-31T11:15:23.197Z,9.38
2022-12-31T11:18:41.626Z,7.72
2022-12-31T11:21:24.532Z,7.70
2022-12-31T11:24:19.391Z,7.20
2022-12-31T11:27:24.503Z,7.20
2022-12-31T11:30:21.647Z,7.32
2022-12-31T11:32:53.600Z,7.55
2022-12-31T11:36:14.383Z,7.00
2022-12-31T11:38:53.316Z,6.95
2022-12-31T11:41:49.958Z,7.72
2022-12-31T11:44:21.868Z,7.50
2022-12-31T11:47:14.083Z,6.90
2022-12-31T11:49:51.876Z,6.10
2022-12-31T11:52:52.194Z,6.32
2022-12-31T11:55:26.952Z,6.40
2022-12-31T11:58:10.192Z,5.97
2022-12-31T12:00:51.091Z,6.32
2022-12-31T12:03:24.813Z,6.15
2022-12-31T12:05:57.961Z,4.82
2022-12-31T12:08:32.870Z,5.45
2022-12-31T12:11:09.226Z,5.88
2022-12-31T12:13:41.163Z,6.85
2022-12-31T12:16:14.402Z,7.43
2022-12-31T12:18:49.351Z,5.80
2022-12-31T12:21:23.233Z,5.70
2022-12-31T12:24:16.819Z,5.80
2022-12-31T12:26:49.546Z,6.65
2022-12-31T12:29:30.098Z,5.22
2022-12-31T12:32:07.563Z,6.70
2022-12-31T12:34:47.591Z,5.93
2022-12-31T12:37:34.715Z,5.93
2022-12-31T12:40:19.452Z,6.03
2022-12-31T12:42:53.898Z,5.70
2022-12-31T12:45:51.683Z,6.03
2022-12-31T12:48:37.607Z,7.47
2022-12-31T12:51:32.722Z,7.55
2022-12-31T12:54:23.109Z,7.10
2022-12-31T12:56:57.675Z,6.75
2022-12-31T13:00:08.086Z,6.95
2022-12-31T13:02:49.250Z,6.40
2022-12-31T13:05:49.109Z,6.38
2022-12-31T13:08:56.127Z,6.35
2022-12-31T13:11:48.579Z,6.65
2022-12-31T13:14:43.285Z,6.22
2022-12-31T13:17:24.229Z,7.15
2022-12-31T13:20:39.582Z,6.82
2022-12-31T13:23:37.761Z,7.68
2022-12-31T13:26:26.893Z,7.20
2022-12-31T13:28:59.893Z,6.47
2022-12-31T13:31:37.991Z,6.47
2022-12-31T13:34:24.788Z,6.55
2022-12-31T13:37:02.949Z,6.38
2022-12-31T13:39:39.813Z,6.72
2022-12-31T13:42:26.269Z,6.65
2022-12-31T13:45:03.035Z,6.20
2022-12-31T13:47:41.080Z,5.75
2022-12-31T13:50:15.807Z,7.20
2022-12-31T13:53:20.273Z,6.70
2022-12-31T13:55:58.203Z,6.93
2022-12-31T13:58:37.462Z,8.40
2022-12-31T14:01:20.703Z,8.15
2022-12-31T14:04:19.536Z,6.90
2022-12-31T14:07:12.710Z,6.60
2022-12-31T14:09:46.859Z,6.38
2022-12-31T14:12:45.884Z,6.05
2022-12-31T14:15:35.290Z,6.10
2022-12-31T14:18:18.951Z,7.20
2022-12-31T14:20:53.551Z,5.93
2022-12-31T14:23:40.695Z,6.53
2022-12-31T14:26:42.142Z,6.25
2022-12-31T14:29:22.869Z,6.78
2022-12-31T14:32:13.063Z,6.90
2022-12-31T14:35:28.172Z,7.25
2022-12-31T14:38:20.381Z,7.15
2022-12-31T14:40:56.484Z,7.25
2022-12-31T14:43:40.236Z,7.10
2022-12-31T14:46:15.053Z,7.65
2022-12-31T14:49:16.087Z,7.40
2022-12-31T14:54:35.664Z,6.75
2022-12-31T14:57:16.921Z,6.47
2022-12-31T14:59:57.466Z,6.72
2022-12-31T15:02:34.101Z,7.30
2022-12-31T15:05:17.916Z,6.25
2022-12-31T15:07:49.819Z,7.22
2022-12-31T15:10:36.185Z,6.63
2022-12-31T15:13:29.549Z,7.35
2022-12-31T15:16:01.487Z,7.00
2022-12-31T15:18:57.994Z,6.80
2022-12-31T15:21:57.526Z,9.10
2022-12-31T15:24:31.190Z,9.35
2022-12-31T15:27:05.919Z,7.07
2022-12-31T15:29:45.829Z,6.70
2022-12-31T15:32:47.960Z,6.07
2022-12-31T15:35:23.030Z,6.00
2022-12-31T15:38:19.882Z,5.28
2022-12-31T15:40:52.966Z,6.38
2022-12-31T15:43:25.199Z,6.68
2022-12-31T15:45:58.241Z,5.80
2022-12-31T15:48:42.318Z,5.43
2022-12-31T15:51:23.148Z,5.35
2022-12-31T15:56:37.723Z,5.00
2022-12-31T15:59:14.902Z,5.30
2022-12-31T16:01:47.911Z,8.73
2022-12-31T16:04:33.609Z,6.10
2022-12-31T16:07:05.571Z,6.18
2022-12-31T16:09:37.632Z,5.65
2022-12-31T16:12:16.243Z,5.90
2022-12-31T16:14:54.461Z,7.40
2022-12-31T16:17:39.395Z,5.78
2022-12-31T16:20:26.805Z,6.90
2022-12-31T16:23:02.121Z,6.60
2022-12-31T16:25:36.889Z,6.45
2022-12-31T16:28:18.778Z,6.18
2022-12-31T16:31:17.304Z,6.78
2022-12-31T16:33:49.203Z,7.53
2022-12-31T16:36:23.743Z,7.07
2022-12-31T16:39:23.800Z,6.63
2022-12-31T16:42:13.977Z,6.50
2022-12-31T16:44:47.763Z,6.85
2022-12-31T16:47:33.272Z,6.28
2022-12-31T16:50:13.724Z,5.80
2022-12-31T16:52:48.979Z,6.20
2022-12-31T16:55:27.420Z,6.65
2022-12-31T16:58:08.297Z,6.20
2022-12-31T17:00:41.166Z,6.00
2022-12-31T17:03:28.579Z,5.88
2022-12-31T17:06:13.948Z,5.53
2022-12-31T17:08:50.317Z,6.10
2022-12-31T17:11:29.181Z,7.10
2022-12-31T17:14:08.051Z,6.25
2022-12-31T17:17:03.964Z,5.70
2022-12-31T17:19:38.930Z,6.22
2022-12-31T17:22:34.256Z,5.13
2022-12-31T17:25:26.572Z,5.18
2022-12-31T17:28:07.471Z,5.78
2022-12-31T17:30:42.736Z,6.30
2022-12-31T17:33:14.668Z,8.02
2022-12-31T17:35:47.075Z,9.38
2022-12-31T17:38:30.577Z,10.20
2022-12-31T17:41:15.238Z,5.57
2022-12-31T17:43:51.868Z,6.55
2022-12-31T17:46:25.162Z,6.25
2022-12-31T17:49:01.826Z,5.82
2022-12-31T17:51:33.700Z,6.15
2022-12-31T17:54:16.406Z,5.88
2022-12-31T17:56:48.711Z,5.80
2022-12-31T17:59:26.022Z,7.90
2022-12-31T18:02:01.402Z,7.10
2022-12-31T18:04:33.427Z,6.53
2022-12-31T18:07:05.304Z,6.32
2022-12-31T18:09:37.138Z,6.05
2022-12-31T18:12:09.107Z,6.68
2022-12-31T18:14:42.729Z,6.15
2022-12-31T18:17:16.711Z,5.13
2022-12-31T18:20:04.853Z,5.18
2022-12-31T18:22:39.875Z,6.05
2022-12-31T18:25:19.505Z,6.93
2022-12-31T18:27:52.598Z,6.30
2022-12-31T18:30:24.483Z,5.63
2022-12-31T18:32:56.659Z,5.80
2022-12-31T18:38:21.095Z,5.50
2022-12-31T18:40:58.798Z,5.68
2022-12-31T18:43:30.774Z,5.45
2022-12-31T18:46:02.828Z,5.40
2022-12-31T18:48:34.805Z,5.22
2022-12-31T18:51:06.752Z,6.55
2022-12-31T18:53:38.765Z,6.03
2022-12-31T18:56:19.197Z,5.93
2022-12-31T18:58:51.511Z,6.03
2022-12-31T19:01:33.854Z,6.72
2022-12-31T19:04:26.615Z,6.65
2022-12-31T19:07:02.502Z,6.20
2022-12-31T19:09:54.633Z,6.40
2022-12-31T19:12:26.222Z,7.03
2022-12-31T19:14:58.739Z,6.30
2022-12-31T19:17:30.680Z,6.43
2022-12-31T19:20:04.639Z,6.50
2022-12-31T19:22:36.535Z,6.28
2022-12-31T19:25:21.880Z,6.90
2022-12-31T19:27:54.083Z,7.10
2022-12-31T19:30:32.351Z,6.57
2022-12-31T19:33:04.641Z,6.43
2022-12-31T19:35:36.730Z,7.20
2022-12-31T19:38:24.885Z,8.10
2022-12-31T19:40:56.893Z,6.43
2022-12-31T19:43:28.936Z,6.30
2022-12-31T19:46:03.892Z,6.07
2022-12-31T19:48:36.543Z,6.00
2022-12-31T19:51:15.640Z,6.47
2022-12-31T19:53:49.306Z,6.70
2022-12-31T19:56:21.257Z,7.10
2022-12-31T19:58:53.129Z,6.65
2022-12-31T20:01:25.681Z,6.45
2022-12-31T20:03:57.673Z,6.47
2022-12-31T20:06:29.801Z,6.55
2022-12-31T20:09:03.146Z,6.43
2022-12-31T20:11:35.088Z,7.60
2022-12-31T20:14:07.027Z,6.55
2022-12-31T20:16:39.076Z,6.15
2022-12-31T20:19:11.118Z,8.13
2022-12-31T20:21:44.739Z,7.63
2022-12-31T20:24:16.724Z,6.93
2022-12-31T20:26:48.568Z,6.63
2022-12-31T20:29:20.816Z,6.65
2022-12-31T20:31:52.663Z,7.18
2022-12-31T20:34:24.585Z,7.00
2022-12-31T20:36:56.488Z,7.25
2022-12-31T20:39:28.363Z,6.97
2022-12-31T20:42:00.204Z,7.07
2022-12-31T20:44:32.151Z,7.45
2022-12-31T20:47:04.068Z,7.55
2022-12-31T20:50:09.712Z,7.25
2022-12-31T20:52:27.879Z,7.57
2022-12-31T20:54:59.731Z,8.25
2022-12-31T20:57:34.048Z,8.13
2022-12-31T21:00:07.413Z,8.57
2022-12-31T21:02:42.772Z,8.25
2022-12-31T21:05:15.503Z,8.07
2022-12-31T21:07:47.510Z,9.65
2022-12-31T21:10:19.611Z,8.07
2022-12-31T21:12:54.482Z,10.48
2022-12-31T21:15:26.407Z,9.13
2022-12-31T21:18:00.479Z,9.90
2022-12-31T21:20:32.435Z,10.32
2022-12-31T21:23:04.393Z,9.32
2022-12-31T21:25:36.255Z,8.18
2022-12-31T21:28:08.307Z,8.25
2022-12-31T21:30:41.671Z,8.13
2022-12-31T21:33:13.543Z,8.95
2022-12-31T21:35:53.885Z,8.10
2022-12-31T21:38:27.341Z,8.35
2022-12-31T21:41:03.789Z,8.32
2022-12-31T21:43:35.797Z,8.27
2022-12-31T21:46:07.902Z,7.88
2022-12-31T21:48:39.861Z,8.52
2022-12-31T21:51:14.463Z,7.55
2022-12-31T21:53:46.441Z,7.43
2022-12-31T21:56:21.443Z,7.47
2022-12-31T21:59:14.488Z,7.38
2022-12-31T22:02:05.240Z,7.15
2022-12-31T22:05:01.923Z,8.20
2022-12-31T22:07:29.020Z,7.80
2022-12-31T22:10:01.724Z,7.43
2022-12-31T22:12:33.647Z,6.95
2022-12-31T22:15:14.501Z,7.03
2022-12-31T22:17:47.661Z,7.68
2022-12-31T22:20:28.216Z,7.95
2022-12-31T22:23:00.748Z,7.60
2022-12-31T22:25:37.115Z,7.60
2022-12-31T22:28:37.478Z,7.57
2022-12-31T22:31:01.377Z,9.27
2022-12-31T22:33:33.395Z,8.48
2022-12-31T22:36:08.058Z,8.07
2022-12-31T22:38:40.724Z,7.13
2022-12-31T22:41:19.213Z,8.50
2022-12-31T22:44:02.248Z,8.02
2022-12-31T22:46:36.249Z,8.30
2022-12-31T22:49:10.821Z,8.80
2022-12-31T22:51:56.960Z,7.20
2022-12-31T22:54:30.845Z,8.40
2022-12-31T22:57:05.335Z,7.60
2022-12-31T22:59:37.316Z,7.60
2022-12-31T23:02:09.585Z,8.40
2022-12-31T23:04:41.521Z,28.70
2022-12-31T23:07:13.472Z,36.22
2022-12-31T23:10:04.163Z,24.00
2022-12-31T23:12:36.057Z,14.85
2022-12-31T23:15:28.640Z,9.05
2022-12-31T23:18:19.233Z,15.88
2022-12-31T23:21:09.644Z,10.98
2022-12-31T23:23:41.522Z,11.13
2022-12-31T23:26:13.461Z,11.45
2022-12-31T23:28:45.480Z,11.98
2022-12-31T23:31:17.438Z,11.63
2022-12-31T23:33:49.401Z,12.05
2022-12-31T23:36:21.576Z,13.15
2022-12-31T23:38:57.156Z,11.95
2022-12-31T23:41:28.986Z,11.63
2022-12-31T23:44:01.053Z,10.77
2022-12-31T23:46:33.046Z,10.20
2022-12-31T23:49:05.015Z,10.20
2022-12-31T23:51:37.023Z,11.20
2022-12-31T23:54:09.086Z,10.80
2022-12-31T23:56:41.061Z,10.48
2022-12-31T23:59:13.579Z,10.93
